<?xml version="1.0" encoding="UTF-8" standalone="no" ?>
<gpx xmlns="http://www.topografix.com/GPX/1/1" xmlns:xsi="http://www.w3.org/2001/XMLSchema-instance" xsi:schemaLocation="http://www.topografix.com/GPX/1/1 http://www.topografix.com/GPX/1/1/gpx.xsd" version="1.1" creator="VisuGPX - https://www.visugpx.com">
  <metadata>
    <name>TET_E-08-CAN link_20241226</name>
    <desc><![CDATA[

]]></desc>
  </metadata>
  <trk>
    <name><![CDATA[TET_E-08-CAN link_20241226]]></name>
    <extensions>
      <line xmlns="http://www.topografix.com/GPX/gpx_style/0/2">
        <color>FF00FF</color>
        <width>4</width>
      </line>
    </extensions>
    <trkseg>
      <trkpt lat="43.45311" lon="-3.81384">
        <ele>2.5</ele>
        <time>2023-07-13T14:09:13.000+02:00</time>
      </trkpt>
      <trkpt lat="43.45663" lon="-3.81587">
        <ele>6.3</ele>
        <time>2023-07-13T14:10:11.000+02:00</time>
      </trkpt>
      <trkpt lat="43.45515" lon="-3.81845">
        <ele>9.2</ele>
        <time>2023-07-13T14:10:48.000+02:00</time>
      </trkpt>
      <trkpt lat="43.45354" lon="-3.82437">
        <ele>5.5</ele>
        <time>2023-07-13T14:11:58.000+02:00</time>
      </trkpt>
      <trkpt lat="43.4524" lon="-3.82539">
        <ele>3</ele>
        <time>2023-07-13T14:12:19.000+02:00</time>
      </trkpt>
      <trkpt lat="43.452" lon="-3.82653">
        <ele>1.3</ele>
        <time>2023-07-13T14:12:33.000+02:00</time>
      </trkpt>
      <trkpt lat="43.45211" lon="-3.82747">
        <ele>3.1</ele>
        <time>2023-07-13T14:12:43.000+02:00</time>
      </trkpt>
      <trkpt lat="43.45406" lon="-3.82846">
        <ele>4.8</ele>
        <time>2023-07-13T14:13:15.000+02:00</time>
      </trkpt>
      <trkpt lat="43.4542" lon="-3.82894">
        <ele>3.5</ele>
        <time>2023-07-13T14:13:21.000+02:00</time>
      </trkpt>
      <trkpt lat="43.45371" lon="-3.8295">
        <ele>3.7</ele>
        <time>2023-07-13T14:13:31.000+02:00</time>
      </trkpt>
      <trkpt lat="43.4518" lon="-3.83639">
        <ele>2.2</ele>
        <time>2023-07-13T14:14:52.000+02:00</time>
      </trkpt>
      <trkpt lat="43.45005" lon="-3.84078">
        <ele>7.2</ele>
        <time>2023-07-13T14:15:48.000+02:00</time>
      </trkpt>
      <trkpt lat="43.44951" lon="-3.84485">
        <ele>11.7</ele>
        <time>2023-07-13T14:16:34.000+02:00</time>
      </trkpt>
      <trkpt lat="43.44921" lon="-3.85041">
        <ele>8.9</ele>
        <time>2023-07-13T14:17:36.000+02:00</time>
      </trkpt>
      <trkpt lat="43.44863" lon="-3.85243">
        <ele>12.2</ele>
        <time>2023-07-13T14:18:00.000+02:00</time>
      </trkpt>
      <trkpt lat="43.4475" lon="-3.85442">
        <ele>10</ele>
        <time>2023-07-13T14:18:28.000+02:00</time>
      </trkpt>
      <trkpt lat="43.44689" lon="-3.85508">
        <ele>9.7</ele>
        <time>2023-07-13T14:18:40.000+02:00</time>
      </trkpt>
      <trkpt lat="43.44372" lon="-3.85688">
        <ele>13.3</ele>
        <time>2023-07-13T14:19:32.000+02:00</time>
      </trkpt>
      <trkpt lat="43.43961" lon="-3.86079">
        <ele>2.8</ele>
        <time>2023-07-13T14:20:48.000+02:00</time>
      </trkpt>
      <trkpt lat="43.43783" lon="-3.86157">
        <ele>3.7</ele>
        <time>2023-07-13T14:21:17.000+02:00</time>
      </trkpt>
      <trkpt lat="43.4369" lon="-3.8614">
        <ele>6.3</ele>
        <time>2023-07-13T14:21:31.000+02:00</time>
      </trkpt>
      <trkpt lat="43.43621" lon="-3.86087">
        <ele>4.2</ele>
        <time>2023-07-13T14:21:43.000+02:00</time>
      </trkpt>
      <trkpt lat="43.43446" lon="-3.85756">
        <ele>9.1</ele>
        <time>2023-07-13T14:22:29.000+02:00</time>
      </trkpt>
      <trkpt lat="43.43338" lon="-3.85666">
        <ele>17</ele>
        <time>2023-07-13T14:22:48.000+02:00</time>
      </trkpt>
      <trkpt lat="43.42927" lon="-3.85699">
        <ele>37.5</ele>
        <time>2023-07-13T14:23:51.000+02:00</time>
      </trkpt>
      <trkpt lat="43.42803" lon="-3.85659">
        <ele>36.4</ele>
        <time>2023-07-13T14:24:10.000+02:00</time>
      </trkpt>
      <trkpt lat="43.42557" lon="-3.85669">
        <ele>35.8</ele>
        <time>2023-07-13T14:24:48.000+02:00</time>
      </trkpt>
      <trkpt lat="43.42548" lon="-3.8559">
        <ele>33.4</ele>
        <time>2023-07-13T14:24:57.000+02:00</time>
      </trkpt>
      <trkpt lat="43.42432" lon="-3.85386">
        <ele>31.7</ele>
        <time>2023-07-13T14:25:26.000+02:00</time>
      </trkpt>
      <trkpt lat="43.42248" lon="-3.852">
        <ele>28.9</ele>
        <time>2023-07-13T14:26:00.000+02:00</time>
      </trkpt>
      <trkpt lat="43.42204" lon="-3.84953">
        <ele>24.3</ele>
        <time>2023-07-13T14:26:29.000+02:00</time>
      </trkpt>
      <trkpt lat="43.42018" lon="-3.84651">
        <ele>21</ele>
        <time>2023-07-13T14:27:13.000+02:00</time>
      </trkpt>
      <trkpt lat="43.41195" lon="-3.84359">
        <ele>9</ele>
        <time>2023-07-13T14:29:22.000+02:00</time>
      </trkpt>
      <trkpt lat="43.41034" lon="-3.84223">
        <ele>9.9</ele>
        <time>2023-07-13T14:29:51.000+02:00</time>
      </trkpt>
      <trkpt lat="43.40813" lon="-3.8425">
        <ele>18.5</ele>
        <time>2023-07-13T14:30:25.000+02:00</time>
      </trkpt>
      <trkpt lat="43.40734" lon="-3.84209">
        <ele>16.1</ele>
        <time>2023-07-13T14:30:38.000+02:00</time>
      </trkpt>
      <trkpt lat="43.40616" lon="-3.84024">
        <ele>7.1</ele>
        <time>2023-07-13T14:31:05.000+02:00</time>
      </trkpt>
      <trkpt lat="43.40558" lon="-3.83829">
        <ele>2.9</ele>
        <time>2023-07-13T14:31:29.000+02:00</time>
      </trkpt>
      <trkpt lat="43.40495" lon="-3.83744">
        <ele>5.9</ele>
        <time>2023-07-13T14:31:42.000+02:00</time>
      </trkpt>
      <trkpt lat="43.405" lon="-3.83678">
        <ele>6</ele>
        <time>2023-07-13T14:31:50.000+02:00</time>
      </trkpt>
      <trkpt lat="43.40416" lon="-3.83204">
        <ele>13.8</ele>
        <time>2023-07-13T14:32:44.000+02:00</time>
      </trkpt>
      <trkpt lat="43.40328" lon="-3.83081">
        <ele>12.3</ele>
        <time>2023-07-13T14:33:03.000+02:00</time>
      </trkpt>
      <trkpt lat="43.40292" lon="-3.82946">
        <ele>16.8</ele>
        <time>2023-07-13T14:33:19.000+02:00</time>
      </trkpt>
      <trkpt lat="43.40111" lon="-3.82653">
        <ele>15.9</ele>
        <time>2023-07-13T14:34:02.000+02:00</time>
      </trkpt>
      <trkpt lat="43.40067" lon="-3.82505">
        <ele>20.1</ele>
        <time>2023-07-13T14:34:19.000+02:00</time>
      </trkpt>
      <trkpt lat="43.39956" lon="-3.823">
        <ele>24</ele>
        <time>2023-07-13T14:34:48.000+02:00</time>
      </trkpt>
      <trkpt lat="43.39718" lon="-3.8199">
        <ele>9.2</ele>
        <time>2023-07-13T14:35:38.000+02:00</time>
      </trkpt>
      <trkpt lat="43.395" lon="-3.81601">
        <ele>6.5</ele>
        <time>2023-07-13T14:36:32.000+02:00</time>
      </trkpt>
      <trkpt lat="43.39128" lon="-3.81457">
        <ele>2.8</ele>
        <time>2023-07-13T14:37:31.000+02:00</time>
      </trkpt>
      <trkpt lat="43.39101" lon="-3.8146">
        <ele>4.9</ele>
        <time>2023-07-13T14:37:35.000+02:00</time>
      </trkpt>
      <trkpt lat="43.39075" lon="-3.81515">
        <ele>4.6</ele>
        <time>2023-07-13T14:37:43.000+02:00</time>
      </trkpt>
      <trkpt lat="43.39054" lon="-3.81502">
        <ele>5.2</ele>
        <time>2023-07-13T14:37:46.000+02:00</time>
      </trkpt>
      <trkpt lat="43.38949" lon="-3.8137">
        <ele>27</ele>
        <time>2023-07-13T14:38:08.000+02:00</time>
      </trkpt>
      <trkpt lat="43.38891" lon="-3.81203">
        <ele>44.7</ele>
        <time>2023-07-13T14:38:29.000+02:00</time>
      </trkpt>
      <trkpt lat="43.38772" lon="-3.81094">
        <ele>61.7</ele>
        <time>2023-07-13T14:38:51.000+02:00</time>
      </trkpt>
      <trkpt lat="43.38756" lon="-3.80947">
        <ele>67.3</ele>
        <time>2023-07-13T14:39:07.000+02:00</time>
      </trkpt>
      <trkpt lat="43.38702" lon="-3.8092">
        <ele>77.9</ele>
        <time>2023-07-13T14:39:16.000+02:00</time>
      </trkpt>
      <trkpt lat="43.38647" lon="-3.80944">
        <ele>87.9</ele>
        <time>2023-07-13T14:39:25.000+02:00</time>
      </trkpt>
      <trkpt lat="43.38544" lon="-3.80836">
        <ele>102.3</ele>
        <time>2023-07-13T14:39:44.000+02:00</time>
      </trkpt>
      <trkpt lat="43.38674" lon="-3.80645">
        <ele>108</ele>
        <time>2023-07-13T14:40:14.000+02:00</time>
      </trkpt>
      <trkpt lat="43.38766" lon="-3.80625">
        <ele>102.8</ele>
        <time>2023-07-13T14:40:28.000+02:00</time>
      </trkpt>
      <trkpt lat="43.38807" lon="-3.8056">
        <ele>108.1</ele>
        <time>2023-07-13T14:40:37.000+02:00</time>
      </trkpt>
      <trkpt lat="43.38788" lon="-3.8039">
        <ele>125.1</ele>
        <time>2023-07-13T14:40:56.000+02:00</time>
      </trkpt>
      <trkpt lat="43.38875" lon="-3.80179">
        <ele>111.1</ele>
        <time>2023-07-13T14:41:23.000+02:00</time>
      </trkpt>
      <trkpt lat="43.3883" lon="-3.80108">
        <ele>111.1</ele>
        <time>2023-07-13T14:41:34.000+02:00</time>
      </trkpt>
      <trkpt lat="43.38773" lon="-3.80091">
        <ele>114.3</ele>
        <time>2023-07-13T14:41:43.000+02:00</time>
      </trkpt>
      <trkpt lat="43.3876" lon="-3.79902">
        <ele>105.9</ele>
        <time>2023-07-13T14:42:04.000+02:00</time>
      </trkpt>
      <trkpt lat="43.38837" lon="-3.7961">
        <ele>119.5</ele>
        <time>2023-07-13T14:42:38.000+02:00</time>
      </trkpt>
      <trkpt lat="43.38842" lon="-3.79515">
        <ele>124.7</ele>
        <time>2023-07-13T14:42:49.000+02:00</time>
      </trkpt>
      <trkpt lat="43.38962" lon="-3.79274">
        <ele>126.9</ele>
        <time>2023-07-13T14:43:21.000+02:00</time>
      </trkpt>
      <trkpt lat="43.39032" lon="-3.79024">
        <ele>124.4</ele>
        <time>2023-07-13T14:43:51.000+02:00</time>
      </trkpt>
      <trkpt lat="43.39033" lon="-3.78609">
        <ele>126.6</ele>
        <time>2023-07-13T14:44:37.000+02:00</time>
      </trkpt>
      <trkpt lat="43.39006" lon="-3.78457">
        <ele>123.7</ele>
        <time>2023-07-13T14:44:54.000+02:00</time>
      </trkpt>
      <trkpt lat="43.39049" lon="-3.78248">
        <ele>114.7</ele>
        <time>2023-07-13T14:45:19.000+02:00</time>
      </trkpt>
      <trkpt lat="43.39021" lon="-3.78165">
        <ele>118.6</ele>
        <time>2023-07-13T14:45:29.000+02:00</time>
      </trkpt>
      <trkpt lat="43.39041" lon="-3.78076">
        <ele>116</ele>
        <time>2023-07-13T14:45:39.000+02:00</time>
      </trkpt>
      <trkpt lat="43.39087" lon="-3.78022">
        <ele>102.8</ele>
        <time>2023-07-13T14:45:48.000+02:00</time>
      </trkpt>
      <trkpt lat="43.39183" lon="-3.77793">
        <ele>84.1</ele>
        <time>2023-07-13T14:46:18.000+02:00</time>
      </trkpt>
      <trkpt lat="43.39209" lon="-3.77561">
        <ele>97.7</ele>
        <time>2023-07-13T14:46:44.000+02:00</time>
      </trkpt>
      <trkpt lat="43.39174" lon="-3.77491">
        <ele>95.2</ele>
        <time>2023-07-13T14:46:53.000+02:00</time>
      </trkpt>
      <trkpt lat="43.39105" lon="-3.7746">
        <ele>103.8</ele>
        <time>2023-07-13T14:47:04.000+02:00</time>
      </trkpt>
      <trkpt lat="43.39093" lon="-3.77316">
        <ele>100.3</ele>
        <time>2023-07-13T14:47:20.000+02:00</time>
      </trkpt>
      <trkpt lat="43.39052" lon="-3.77193">
        <ele>101.3</ele>
        <time>2023-07-13T14:47:35.000+02:00</time>
      </trkpt>
      <trkpt lat="43.39032" lon="-3.76917">
        <ele>100.7</ele>
        <time>2023-07-13T14:48:06.000+02:00</time>
      </trkpt>
      <trkpt lat="43.38922" lon="-3.76526">
        <ele>88.4</ele>
        <time>2023-07-13T14:48:53.000+02:00</time>
      </trkpt>
      <trkpt lat="43.38886" lon="-3.76266">
        <ele>66.9</ele>
        <time>2023-07-13T14:49:22.000+02:00</time>
      </trkpt>
      <trkpt lat="43.3884" lon="-3.76104">
        <ele>48.6</ele>
        <time>2023-07-13T14:49:41.000+02:00</time>
      </trkpt>
      <trkpt lat="43.38799" lon="-3.76084">
        <ele>52.4</ele>
        <time>2023-07-13T14:49:48.000+02:00</time>
      </trkpt>
      <trkpt lat="43.38787" lon="-3.75969">
        <ele>43.5</ele>
        <time>2023-07-13T14:50:01.000+02:00</time>
      </trkpt>
      <trkpt lat="43.38423" lon="-3.75936">
        <ele>43.6</ele>
        <time>2023-07-13T14:50:57.000+02:00</time>
      </trkpt>
      <trkpt lat="43.38333" lon="-3.75758">
        <ele>47.9</ele>
        <time>2023-07-13T14:51:21.000+02:00</time>
      </trkpt>
      <trkpt lat="43.38169" lon="-3.75562">
        <ele>54.1</ele>
        <time>2023-07-13T14:51:54.000+02:00</time>
      </trkpt>
      <trkpt lat="43.38113" lon="-3.75436">
        <ele>58.6</ele>
        <time>2023-07-13T14:52:11.000+02:00</time>
      </trkpt>
      <trkpt lat="43.38057" lon="-3.75384">
        <ele>56.1</ele>
        <time>2023-07-13T14:52:21.000+02:00</time>
      </trkpt>
      <trkpt lat="43.37934" lon="-3.7536">
        <ele>59.4</ele>
        <time>2023-07-13T14:52:40.000+02:00</time>
      </trkpt>
      <trkpt lat="43.37649" lon="-3.75404">
        <ele>56.3</ele>
        <time>2023-07-13T14:53:24.000+02:00</time>
      </trkpt>
      <trkpt lat="43.3761" lon="-3.75389">
        <ele>54.8</ele>
        <time>2023-07-13T14:53:30.000+02:00</time>
      </trkpt>
      <trkpt lat="43.37581" lon="-3.75331">
        <ele>54.1</ele>
        <time>2023-07-13T14:53:38.000+02:00</time>
      </trkpt>
      <trkpt lat="43.37438" lon="-3.75519">
        <ele>63</ele>
        <time>2023-07-13T14:54:08.000+02:00</time>
      </trkpt>
      <trkpt lat="43.37519" lon="-3.75504">
        <ele>68.2</ele>
        <time>2023-07-13T14:54:21.000+02:00</time>
      </trkpt>
      <trkpt lat="43.37394" lon="-3.75626">
        <ele>80.8</ele>
        <time>2023-07-13T14:54:44.000+02:00</time>
      </trkpt>
      <trkpt lat="43.37246" lon="-3.75896">
        <ele>113.9</ele>
        <time>2023-07-13T14:55:22.000+02:00</time>
      </trkpt>
      <trkpt lat="43.37125" lon="-3.7619">
        <ele>135.9</ele>
        <time>2023-07-13T14:55:59.000+02:00</time>
      </trkpt>
      <trkpt lat="43.37037" lon="-3.76511">
        <ele>147.5</ele>
        <time>2023-07-13T14:56:37.000+02:00</time>
      </trkpt>
      <trkpt lat="43.37005" lon="-3.76519">
        <ele>143.2</ele>
        <time>2023-07-13T14:56:42.000+02:00</time>
      </trkpt>
      <trkpt lat="43.36973" lon="-3.76631">
        <ele>144</ele>
        <time>2023-07-13T14:56:56.000+02:00</time>
      </trkpt>
      <trkpt lat="43.36926" lon="-3.76694">
        <ele>132.6</ele>
        <time>2023-07-13T14:57:06.000+02:00</time>
      </trkpt>
      <trkpt lat="43.36862" lon="-3.76943">
        <ele>115.2</ele>
        <time>2023-07-13T14:57:35.000+02:00</time>
      </trkpt>
      <trkpt lat="43.36802" lon="-3.77005">
        <ele>100.4</ele>
        <time>2023-07-13T14:57:46.000+02:00</time>
      </trkpt>
      <trkpt lat="43.36852" lon="-3.77222">
        <ele>109</ele>
        <time>2023-07-13T14:58:12.000+02:00</time>
      </trkpt>
      <trkpt lat="43.36768" lon="-3.7746">
        <ele>107.1</ele>
        <time>2023-07-13T14:58:41.000+02:00</time>
      </trkpt>
      <trkpt lat="43.36713" lon="-3.77521">
        <ele>108.7</ele>
        <time>2023-07-13T14:58:52.000+02:00</time>
      </trkpt>
      <trkpt lat="43.36562" lon="-3.77605">
        <ele>110.6</ele>
        <time>2023-07-13T14:59:17.000+02:00</time>
      </trkpt>
      <trkpt lat="43.36399" lon="-3.77889">
        <ele>113.3</ele>
        <time>2023-07-13T14:59:57.000+02:00</time>
      </trkpt>
      <trkpt lat="43.36336" lon="-3.77863">
        <ele>110.5</ele>
        <time>2023-07-13T15:00:07.000+02:00</time>
      </trkpt>
      <trkpt lat="43.36291" lon="-3.77877">
        <ele>114.1</ele>
        <time>2023-07-13T15:00:14.000+02:00</time>
      </trkpt>
      <trkpt lat="43.36251" lon="-3.77974">
        <ele>117.3</ele>
        <time>2023-07-13T15:00:26.000+02:00</time>
      </trkpt>
      <trkpt lat="43.36226" lon="-3.78087">
        <ele>115.3</ele>
        <time>2023-07-13T15:00:40.000+02:00</time>
      </trkpt>
      <trkpt lat="43.36278" lon="-3.78126">
        <ele>116.2</ele>
        <time>2023-07-13T15:00:49.000+02:00</time>
      </trkpt>
      <trkpt lat="43.3629" lon="-3.7827">
        <ele>113.2</ele>
        <time>2023-07-13T15:01:05.000+02:00</time>
      </trkpt>
      <trkpt lat="43.36403" lon="-3.78283">
        <ele>111.2</ele>
        <time>2023-07-13T15:01:22.000+02:00</time>
      </trkpt>
      <trkpt lat="43.36503" lon="-3.78498">
        <ele>91.7</ele>
        <time>2023-07-13T15:01:51.000+02:00</time>
      </trkpt>
      <trkpt lat="43.36477" lon="-3.78621">
        <ele>88.3</ele>
        <time>2023-07-13T15:02:05.000+02:00</time>
      </trkpt>
      <trkpt lat="43.3648" lon="-3.78758">
        <ele>102.1</ele>
        <time>2023-07-13T15:02:20.000+02:00</time>
      </trkpt>
      <trkpt lat="43.36335" lon="-3.78823">
        <ele>105.9</ele>
        <time>2023-07-13T15:02:43.000+02:00</time>
      </trkpt>
      <trkpt lat="43.36302" lon="-3.78873">
        <ele>109.6</ele>
        <time>2023-07-13T15:02:51.000+02:00</time>
      </trkpt>
      <trkpt lat="43.36309" lon="-3.79163">
        <ele>129.8</ele>
        <time>2023-07-13T15:03:23.000+02:00</time>
      </trkpt>
      <trkpt lat="43.36284" lon="-3.79277">
        <ele>130.2</ele>
        <time>2023-07-13T15:03:36.000+02:00</time>
      </trkpt>
      <trkpt lat="43.36139" lon="-3.79604">
        <ele>134.3</ele>
        <time>2023-07-13T15:04:19.000+02:00</time>
      </trkpt>
      <trkpt lat="43.36196" lon="-3.79895">
        <ele>164.6</ele>
        <time>2023-07-13T15:04:52.000+02:00</time>
      </trkpt>
      <trkpt lat="43.36242" lon="-3.79903">
        <ele>175.3</ele>
        <time>2023-07-13T15:04:59.000+02:00</time>
      </trkpt>
      <trkpt lat="43.36292" lon="-3.80064">
        <ele>169.4</ele>
        <time>2023-07-13T15:05:19.000+02:00</time>
      </trkpt>
      <trkpt lat="43.36329" lon="-3.80082">
        <ele>173.7</ele>
        <time>2023-07-13T15:05:25.000+02:00</time>
      </trkpt>
      <trkpt lat="43.36335" lon="-3.8035">
        <ele>171.2</ele>
        <time>2023-07-13T15:05:55.000+02:00</time>
      </trkpt>
      <trkpt lat="43.36274" lon="-3.80482">
        <ele>168.2</ele>
        <time>2023-07-13T15:06:12.000+02:00</time>
      </trkpt>
      <trkpt lat="43.36147" lon="-3.80521">
        <ele>158.4</ele>
        <time>2023-07-13T15:06:32.000+02:00</time>
      </trkpt>
      <trkpt lat="43.36003" lon="-3.80759">
        <ele>151.4</ele>
        <time>2023-07-13T15:07:06.000+02:00</time>
      </trkpt>
      <trkpt lat="43.35955" lon="-3.80793">
        <ele>151.8</ele>
        <time>2023-07-13T15:07:14.000+02:00</time>
      </trkpt>
      <trkpt lat="43.3587" lon="-3.80798">
        <ele>154.4</ele>
        <time>2023-07-13T15:07:27.000+02:00</time>
      </trkpt>
      <trkpt lat="43.35796" lon="-3.80933">
        <ele>157.7</ele>
        <time>2023-07-13T15:07:46.000+02:00</time>
      </trkpt>
      <trkpt lat="43.35806" lon="-3.81082">
        <ele>155.6</ele>
        <time>2023-07-13T15:08:03.000+02:00</time>
      </trkpt>
      <trkpt lat="43.35758" lon="-3.81542">
        <ele>143.4</ele>
        <time>2023-07-13T15:08:54.000+02:00</time>
      </trkpt>
      <trkpt lat="43.35837" lon="-3.81592">
        <ele>140.4</ele>
        <time>2023-07-13T15:09:08.000+02:00</time>
      </trkpt>
      <trkpt lat="43.35848" lon="-3.81651">
        <ele>136.3</ele>
        <time>2023-07-13T15:09:15.000+02:00</time>
      </trkpt>
      <trkpt lat="43.3594" lon="-3.81669">
        <ele>134</ele>
        <time>2023-07-13T15:09:29.000+02:00</time>
      </trkpt>
      <trkpt lat="43.35961" lon="-3.81748">
        <ele>132.8</ele>
        <time>2023-07-13T15:09:38.000+02:00</time>
      </trkpt>
      <trkpt lat="43.35946" lon="-3.81801">
        <ele>134.1</ele>
        <time>2023-07-13T15:09:44.000+02:00</time>
      </trkpt>
      <trkpt lat="43.3581" lon="-3.81933">
        <ele>136</ele>
        <time>2023-07-13T15:10:10.000+02:00</time>
      </trkpt>
      <trkpt lat="43.35815" lon="-3.8222">
        <ele>142.8</ele>
        <time>2023-07-13T15:10:43.000+02:00</time>
      </trkpt>
      <trkpt lat="43.35805" lon="-3.82221">
        <ele>142.8</ele>
        <time>2023-07-13T15:10:44.000+02:00</time>
      </trkpt>
      <trkpt lat="43.35759" lon="-3.82222">
        <ele>143.3</ele>
        <time>2023-07-13T15:10:52.000+02:00</time>
      </trkpt>
      <trkpt lat="43.35739" lon="-3.82224">
        <ele>143</ele>
        <time>2023-07-13T15:10:55.000+02:00</time>
      </trkpt>
      <trkpt lat="43.35736" lon="-3.82224">
        <ele>143</ele>
        <time>2023-07-13T15:10:55.000+02:00</time>
      </trkpt>
      <trkpt lat="43.35731" lon="-3.82225">
        <ele>143</ele>
        <time>2023-07-13T15:10:56.000+02:00</time>
      </trkpt>
      <trkpt lat="43.3572" lon="-3.82226">
        <ele>143</ele>
        <time>2023-07-13T15:10:58.000+02:00</time>
      </trkpt>
      <trkpt lat="43.35691" lon="-3.82225">
        <ele>142.8</ele>
        <time>2023-07-13T15:11:03.000+02:00</time>
      </trkpt>
      <trkpt lat="43.35673" lon="-3.82228">
        <ele>142.5</ele>
        <time>2023-07-13T15:11:05.000+02:00</time>
      </trkpt>
      <trkpt lat="43.3564" lon="-3.82234">
        <ele>143</ele>
        <time>2023-07-13T15:11:11.000+02:00</time>
      </trkpt>
      <trkpt lat="43.35617" lon="-3.82236">
        <ele>143.5</ele>
        <time>2023-07-13T15:11:14.000+02:00</time>
      </trkpt>
      <trkpt lat="43.356" lon="-3.82247">
        <ele>143.5</ele>
        <time>2023-07-13T15:11:17.000+02:00</time>
      </trkpt>
      <trkpt lat="43.35595" lon="-3.82252">
        <ele>143.5</ele>
        <time>2023-07-13T15:11:18.000+02:00</time>
      </trkpt>
      <trkpt lat="43.35592" lon="-3.8226">
        <ele>142.8</ele>
        <time>2023-07-13T15:11:19.000+02:00</time>
      </trkpt>
      <trkpt lat="43.35587" lon="-3.82266">
        <ele>142.5</ele>
        <time>2023-07-13T15:11:20.000+02:00</time>
      </trkpt>
      <trkpt lat="43.3558" lon="-3.82269">
        <ele>142.3</ele>
        <time>2023-07-13T15:11:22.000+02:00</time>
      </trkpt>
      <trkpt lat="43.35576" lon="-3.82269">
        <ele>142.3</ele>
        <time>2023-07-13T15:11:22.000+02:00</time>
      </trkpt>
      <trkpt lat="43.35572" lon="-3.82268">
        <ele>142.5</ele>
        <time>2023-07-13T15:11:23.000+02:00</time>
      </trkpt>
      <trkpt lat="43.35566" lon="-3.82264">
        <ele>142.8</ele>
        <time>2023-07-13T15:11:24.000+02:00</time>
      </trkpt>
      <trkpt lat="43.35555" lon="-3.82259">
        <ele>143.3</ele>
        <time>2023-07-13T15:11:26.000+02:00</time>
      </trkpt>
      <trkpt lat="43.35543" lon="-3.82255">
        <ele>143.8</ele>
        <time>2023-07-13T15:11:28.000+02:00</time>
      </trkpt>
      <trkpt lat="43.35379" lon="-3.82311">
        <ele>136.5</ele>
        <time>2023-07-13T15:11:54.000+02:00</time>
      </trkpt>
      <trkpt lat="43.3536" lon="-3.82315">
        <ele>135</ele>
        <time>2023-07-13T15:11:58.000+02:00</time>
      </trkpt>
      <trkpt lat="43.35352" lon="-3.82315">
        <ele>134.5</ele>
        <time>2023-07-13T15:11:59.000+02:00</time>
      </trkpt>
      <trkpt lat="43.35341" lon="-3.82313">
        <ele>134.3</ele>
        <time>2023-07-13T15:12:01.000+02:00</time>
      </trkpt>
      <trkpt lat="43.35242" lon="-3.82283">
        <ele>128.8</ele>
        <time>2023-07-13T15:12:17.000+02:00</time>
      </trkpt>
      <trkpt lat="43.35226" lon="-3.82277">
        <ele>128</ele>
        <time>2023-07-13T15:12:19.000+02:00</time>
      </trkpt>
      <trkpt lat="43.35216" lon="-3.82272">
        <ele>127.5</ele>
        <time>2023-07-13T15:12:21.000+02:00</time>
      </trkpt>
      <trkpt lat="43.35172" lon="-3.82242">
        <ele>126.3</ele>
        <time>2023-07-13T15:12:29.000+02:00</time>
      </trkpt>
      <trkpt lat="43.35163" lon="-3.82238">
        <ele>126</ele>
        <time>2023-07-13T15:12:30.000+02:00</time>
      </trkpt>
      <trkpt lat="43.35153" lon="-3.82236">
        <ele>125.8</ele>
        <time>2023-07-13T15:12:32.000+02:00</time>
      </trkpt>
      <trkpt lat="43.35113" lon="-3.82235">
        <ele>124.8</ele>
        <time>2023-07-13T15:12:38.000+02:00</time>
      </trkpt>
      <trkpt lat="43.3509" lon="-3.82233">
        <ele>124.3</ele>
        <time>2023-07-13T15:12:42.000+02:00</time>
      </trkpt>
      <trkpt lat="43.35076" lon="-3.82226">
        <ele>124</ele>
        <time>2023-07-13T15:12:44.000+02:00</time>
      </trkpt>
      <trkpt lat="43.34996" lon="-3.82161">
        <ele>122</ele>
        <time>2023-07-13T15:12:59.000+02:00</time>
      </trkpt>
      <trkpt lat="43.34986" lon="-3.82155">
        <ele>121.8</ele>
        <time>2023-07-13T15:13:01.000+02:00</time>
      </trkpt>
      <trkpt lat="43.34945" lon="-3.82142">
        <ele>120.3</ele>
        <time>2023-07-13T15:13:07.000+02:00</time>
      </trkpt>
      <trkpt lat="43.34931" lon="-3.82137">
        <ele>119.8</ele>
        <time>2023-07-13T15:13:10.000+02:00</time>
      </trkpt>
      <trkpt lat="43.34919" lon="-3.82135">
        <ele>119</ele>
        <time>2023-07-13T15:13:12.000+02:00</time>
      </trkpt>
      <trkpt lat="43.34907" lon="-3.82137">
        <ele>118.3</ele>
        <time>2023-07-13T15:13:14.000+02:00</time>
      </trkpt>
      <trkpt lat="43.34856" lon="-3.82144">
        <ele>114.8</ele>
        <time>2023-07-13T15:13:22.000+02:00</time>
      </trkpt>
      <trkpt lat="43.3478" lon="-3.82142">
        <ele>109.3</ele>
        <time>2023-07-13T15:13:34.000+02:00</time>
      </trkpt>
      <trkpt lat="43.34748" lon="-3.82147">
        <ele>106.8</ele>
        <time>2023-07-13T15:13:39.000+02:00</time>
      </trkpt>
      <trkpt lat="43.34738" lon="-3.82147">
        <ele>106.8</ele>
        <time>2023-07-13T15:13:40.000+02:00</time>
      </trkpt>
      <trkpt lat="43.3473" lon="-3.82148">
        <ele>106.5</ele>
        <time>2023-07-13T15:13:42.000+02:00</time>
      </trkpt>
      <trkpt lat="43.34709" lon="-3.82143">
        <ele>106.5</ele>
        <time>2023-07-13T15:13:45.000+02:00</time>
      </trkpt>
      <trkpt lat="43.34669" lon="-3.82135">
        <ele>106</ele>
        <time>2023-07-13T15:13:51.000+02:00</time>
      </trkpt>
      <trkpt lat="43.34655" lon="-3.82136">
        <ele>106</ele>
        <time>2023-07-13T15:13:54.000+02:00</time>
      </trkpt>
      <trkpt lat="43.34648" lon="-3.82137">
        <ele>106</ele>
        <time>2023-07-13T15:13:55.000+02:00</time>
      </trkpt>
      <trkpt lat="43.34637" lon="-3.82142">
        <ele>106</ele>
        <time>2023-07-13T15:13:57.000+02:00</time>
      </trkpt>
      <trkpt lat="43.34627" lon="-3.82146">
        <ele>106</ele>
        <time>2023-07-13T15:13:58.000+02:00</time>
      </trkpt>
      <trkpt lat="43.34615" lon="-3.82149">
        <ele>106.3</ele>
        <time>2023-07-13T15:14:00.000+02:00</time>
      </trkpt>
      <trkpt lat="43.34443" lon="-3.82179">
        <ele>99.8</ele>
        <time>2023-07-13T15:14:28.000+02:00</time>
      </trkpt>
      <trkpt lat="43.34434" lon="-3.82178">
        <ele>99.5</ele>
        <time>2023-07-13T15:14:29.000+02:00</time>
      </trkpt>
      <trkpt lat="43.34426" lon="-3.82175">
        <ele>99</ele>
        <time>2023-07-13T15:14:30.000+02:00</time>
      </trkpt>
      <trkpt lat="43.34419" lon="-3.8217">
        <ele>99</ele>
        <time>2023-07-13T15:14:32.000+02:00</time>
      </trkpt>
      <trkpt lat="43.34411" lon="-3.82162">
        <ele>98.8</ele>
        <time>2023-07-13T15:14:33.000+02:00</time>
      </trkpt>
      <trkpt lat="43.34396" lon="-3.82141">
        <ele>98.3</ele>
        <time>2023-07-13T15:14:37.000+02:00</time>
      </trkpt>
      <trkpt lat="43.34376" lon="-3.82112">
        <ele>98.3</ele>
        <time>2023-07-13T15:14:41.000+02:00</time>
      </trkpt>
      <trkpt lat="43.3436" lon="-3.82094">
        <ele>99</ele>
        <time>2023-07-13T15:14:44.000+02:00</time>
      </trkpt>
      <trkpt lat="43.34346" lon="-3.82081">
        <ele>99.8</ele>
        <time>2023-07-13T15:14:47.000+02:00</time>
      </trkpt>
      <trkpt lat="43.3433" lon="-3.82072">
        <ele>100.3</ele>
        <time>2023-07-13T15:14:50.000+02:00</time>
      </trkpt>
      <trkpt lat="43.34261" lon="-3.82038">
        <ele>103.8</ele>
        <time>2023-07-13T15:15:02.000+02:00</time>
      </trkpt>
      <trkpt lat="43.34063" lon="-3.81938">
        <ele>106.3</ele>
        <time>2023-07-13T15:15:35.000+02:00</time>
      </trkpt>
      <trkpt lat="43.34022" lon="-3.81916">
        <ele>108.3</ele>
        <time>2023-07-13T15:15:42.000+02:00</time>
      </trkpt>
      <trkpt lat="43.33989" lon="-3.81901">
        <ele>109.3</ele>
        <time>2023-07-13T15:15:47.000+02:00</time>
      </trkpt>
      <trkpt lat="43.33986" lon="-3.81916">
        <ele>109</ele>
        <time>2023-07-13T15:15:49.000+02:00</time>
      </trkpt>
      <trkpt lat="43.33973" lon="-3.81995">
        <ele>108.3</ele>
        <time>2023-07-13T15:15:58.000+02:00</time>
      </trkpt>
      <trkpt lat="43.33965" lon="-3.8204">
        <ele>105.5</ele>
        <time>2023-07-13T15:16:04.000+02:00</time>
      </trkpt>
      <trkpt lat="43.33956" lon="-3.82093">
        <ele>102</ele>
        <time>2023-07-13T15:16:10.000+02:00</time>
      </trkpt>
      <trkpt lat="43.33952" lon="-3.82095">
        <ele>102</ele>
        <time>2023-07-13T15:16:11.000+02:00</time>
      </trkpt>
      <trkpt lat="43.33948" lon="-3.82096">
        <ele>101.8</ele>
        <time>2023-07-13T15:16:11.000+02:00</time>
      </trkpt>
      <trkpt lat="43.3394" lon="-3.82094">
        <ele>101.8</ele>
        <time>2023-07-13T15:16:13.000+02:00</time>
      </trkpt>
      <trkpt lat="43.33929" lon="-3.82087">
        <ele>101.8</ele>
        <time>2023-07-13T15:16:15.000+02:00</time>
      </trkpt>
      <trkpt lat="43.33879" lon="-3.82083">
        <ele>102.8</ele>
        <time>2023-07-13T15:16:22.000+02:00</time>
      </trkpt>
      <trkpt lat="43.33865" lon="-3.82082">
        <ele>103.3</ele>
        <time>2023-07-13T15:16:25.000+02:00</time>
      </trkpt>
      <trkpt lat="43.3386" lon="-3.82081">
        <ele>103.3</ele>
        <time>2023-07-13T15:16:25.000+02:00</time>
      </trkpt>
      <trkpt lat="43.33859" lon="-3.82081">
        <ele>103.3</ele>
        <time>2023-07-13T15:16:26.000+02:00</time>
      </trkpt>
      <trkpt lat="43.33785" lon="-3.82073">
        <ele>100</ele>
        <time>2023-07-13T15:16:37.000+02:00</time>
      </trkpt>
      <trkpt lat="43.33775" lon="-3.82071">
        <ele>99.3</ele>
        <time>2023-07-13T15:16:39.000+02:00</time>
      </trkpt>
      <trkpt lat="43.33754" lon="-3.82066">
        <ele>97.5</ele>
        <time>2023-07-13T15:16:42.000+02:00</time>
      </trkpt>
      <trkpt lat="43.33711" lon="-3.82048">
        <ele>97</ele>
        <time>2023-07-13T15:16:49.000+02:00</time>
      </trkpt>
      <trkpt lat="43.33694" lon="-3.82044">
        <ele>96.8</ele>
        <time>2023-07-13T15:16:52.000+02:00</time>
      </trkpt>
      <trkpt lat="43.33684" lon="-3.82043">
        <ele>96.8</ele>
        <time>2023-07-13T15:16:54.000+02:00</time>
      </trkpt>
      <trkpt lat="43.33657" lon="-3.82043">
        <ele>96.5</ele>
        <time>2023-07-13T15:16:58.000+02:00</time>
      </trkpt>
      <trkpt lat="43.33641" lon="-3.82044">
        <ele>97</ele>
        <time>2023-07-13T15:17:01.000+02:00</time>
      </trkpt>
      <trkpt lat="43.33624" lon="-3.82046">
        <ele>97.3</ele>
        <time>2023-07-13T15:17:03.000+02:00</time>
      </trkpt>
      <trkpt lat="43.33587" lon="-3.82049">
        <ele>98</ele>
        <time>2023-07-13T15:17:09.000+02:00</time>
      </trkpt>
      <trkpt lat="43.33578" lon="-3.8205">
        <ele>98.3</ele>
        <time>2023-07-13T15:17:11.000+02:00</time>
      </trkpt>
      <trkpt lat="43.3357" lon="-3.82049">
        <ele>98.5</ele>
        <time>2023-07-13T15:17:12.000+02:00</time>
      </trkpt>
      <trkpt lat="43.3356" lon="-3.82048">
        <ele>98.8</ele>
        <time>2023-07-13T15:17:13.000+02:00</time>
      </trkpt>
      <trkpt lat="43.33552" lon="-3.82044">
        <ele>99.3</ele>
        <time>2023-07-13T15:17:15.000+02:00</time>
      </trkpt>
      <trkpt lat="43.33547" lon="-3.82041">
        <ele>99.5</ele>
        <time>2023-07-13T15:17:16.000+02:00</time>
      </trkpt>
      <trkpt lat="43.33543" lon="-3.82039">
        <ele>99.8</ele>
        <time>2023-07-13T15:17:16.000+02:00</time>
      </trkpt>
      <trkpt lat="43.33537" lon="-3.82034">
        <ele>100</ele>
        <time>2023-07-13T15:17:18.000+02:00</time>
      </trkpt>
      <trkpt lat="43.33532" lon="-3.82028">
        <ele>100.5</ele>
        <time>2023-07-13T15:17:19.000+02:00</time>
      </trkpt>
      <trkpt lat="43.33529" lon="-3.82022">
        <ele>100.8</ele>
        <time>2023-07-13T15:17:19.000+02:00</time>
      </trkpt>
      <trkpt lat="43.33524" lon="-3.8201">
        <ele>101.5</ele>
        <time>2023-07-13T15:17:21.000+02:00</time>
      </trkpt>
      <trkpt lat="43.3352" lon="-3.81994">
        <ele>102.5</ele>
        <time>2023-07-13T15:17:23.000+02:00</time>
      </trkpt>
      <trkpt lat="43.33519" lon="-3.81982">
        <ele>103.3</ele>
        <time>2023-07-13T15:17:24.000+02:00</time>
      </trkpt>
      <trkpt lat="43.33518" lon="-3.8195">
        <ele>105.5</ele>
        <time>2023-07-13T15:17:28.000+02:00</time>
      </trkpt>
      <trkpt lat="43.33516" lon="-3.81939">
        <ele>106</ele>
        <time>2023-07-13T15:17:29.000+02:00</time>
      </trkpt>
      <trkpt lat="43.33514" lon="-3.81934">
        <ele>106.5</ele>
        <time>2023-07-13T15:17:30.000+02:00</time>
      </trkpt>
      <trkpt lat="43.33511" lon="-3.81933">
        <ele>106.5</ele>
        <time>2023-07-13T15:17:30.000+02:00</time>
      </trkpt>
      <trkpt lat="43.3351" lon="-3.81933">
        <ele>106.8</ele>
        <time>2023-07-13T15:17:31.000+02:00</time>
      </trkpt>
      <trkpt lat="43.33508" lon="-3.81933">
        <ele>106.8</ele>
        <time>2023-07-13T15:17:31.000+02:00</time>
      </trkpt>
      <trkpt lat="43.33497" lon="-3.81942">
        <ele>106.3</ele>
        <time>2023-07-13T15:17:33.000+02:00</time>
      </trkpt>
      <trkpt lat="43.33477" lon="-3.81967">
        <ele>104.8</ele>
        <time>2023-07-13T15:17:37.000+02:00</time>
      </trkpt>
      <trkpt lat="43.33463" lon="-3.81945">
        <ele>105.8</ele>
        <time>2023-07-13T15:17:41.000+02:00</time>
      </trkpt>
      <trkpt lat="43.33458" lon="-3.81934">
        <ele>106.3</ele>
        <time>2023-07-13T15:17:42.000+02:00</time>
      </trkpt>
      <trkpt lat="43.33441" lon="-3.81903">
        <ele>107.3</ele>
        <time>2023-07-13T15:17:47.000+02:00</time>
      </trkpt>
      <trkpt lat="43.33437" lon="-3.81893">
        <ele>107.8</ele>
        <time>2023-07-13T15:17:48.000+02:00</time>
      </trkpt>
      <trkpt lat="43.33412" lon="-3.8191">
        <ele>106.3</ele>
        <time>2023-07-13T15:17:52.000+02:00</time>
      </trkpt>
      <trkpt lat="43.33389" lon="-3.81928">
        <ele>106.5</ele>
        <time>2023-07-13T15:17:57.000+02:00</time>
      </trkpt>
      <trkpt lat="43.33373" lon="-3.81938">
        <ele>106.5</ele>
        <time>2023-07-13T15:17:59.000+02:00</time>
      </trkpt>
      <trkpt lat="43.33361" lon="-3.81938">
        <ele>106.8</ele>
        <time>2023-07-13T15:18:01.000+02:00</time>
      </trkpt>
      <trkpt lat="43.33343" lon="-3.81941">
        <ele>107.3</ele>
        <time>2023-07-13T15:18:04.000+02:00</time>
      </trkpt>
      <trkpt lat="43.33337" lon="-3.81941">
        <ele>107.3</ele>
        <time>2023-07-13T15:18:05.000+02:00</time>
      </trkpt>
      <trkpt lat="43.33332" lon="-3.81939">
        <ele>107.5</ele>
        <time>2023-07-13T15:18:06.000+02:00</time>
      </trkpt>
      <trkpt lat="43.33322" lon="-3.81934">
        <ele>107.8</ele>
        <time>2023-07-13T15:18:08.000+02:00</time>
      </trkpt>
      <trkpt lat="43.33302" lon="-3.81957">
        <ele>106.5</ele>
        <time>2023-07-13T15:18:12.000+02:00</time>
      </trkpt>
      <trkpt lat="43.33297" lon="-3.8196">
        <ele>106.3</ele>
        <time>2023-07-13T15:18:13.000+02:00</time>
      </trkpt>
      <trkpt lat="43.33293" lon="-3.81962">
        <ele>106.3</ele>
        <time>2023-07-13T15:18:13.000+02:00</time>
      </trkpt>
      <trkpt lat="43.33288" lon="-3.81962">
        <ele>106.3</ele>
        <time>2023-07-13T15:18:14.000+02:00</time>
      </trkpt>
      <trkpt lat="43.33271" lon="-3.81958">
        <ele>106.5</ele>
        <time>2023-07-13T15:18:17.000+02:00</time>
      </trkpt>
      <trkpt lat="43.33262" lon="-3.81958">
        <ele>106.5</ele>
        <time>2023-07-13T15:18:18.000+02:00</time>
      </trkpt>
      <trkpt lat="43.33256" lon="-3.8196">
        <ele>106.3</ele>
        <time>2023-07-13T15:18:19.000+02:00</time>
      </trkpt>
      <trkpt lat="43.33241" lon="-3.81971">
        <ele>105.8</ele>
        <time>2023-07-13T15:18:22.000+02:00</time>
      </trkpt>
      <trkpt lat="43.33236" lon="-3.81972">
        <ele>105.5</ele>
        <time>2023-07-13T15:18:23.000+02:00</time>
      </trkpt>
      <trkpt lat="43.33231" lon="-3.81971">
        <ele>105.8</ele>
        <time>2023-07-13T15:18:24.000+02:00</time>
      </trkpt>
      <trkpt lat="43.33221" lon="-3.81964">
        <ele>106</ele>
        <time>2023-07-13T15:18:25.000+02:00</time>
      </trkpt>
      <trkpt lat="43.33216" lon="-3.81962">
        <ele>106.3</ele>
        <time>2023-07-13T15:18:26.000+02:00</time>
      </trkpt>
      <trkpt lat="43.33194" lon="-3.81962">
        <ele>106.3</ele>
        <time>2023-07-13T15:18:30.000+02:00</time>
      </trkpt>
      <trkpt lat="43.33185" lon="-3.81962">
        <ele>106.3</ele>
        <time>2023-07-13T15:18:31.000+02:00</time>
      </trkpt>
      <trkpt lat="43.3318" lon="-3.81961">
        <ele>106.3</ele>
        <time>2023-07-13T15:18:32.000+02:00</time>
      </trkpt>
      <trkpt lat="43.33173" lon="-3.81966">
        <ele>106</ele>
        <time>2023-07-13T15:18:33.000+02:00</time>
      </trkpt>
      <trkpt lat="43.33163" lon="-3.81973">
        <ele>105.8</ele>
        <time>2023-07-13T15:18:35.000+02:00</time>
      </trkpt>
      <trkpt lat="43.33147" lon="-3.81978">
        <ele>105</ele>
        <time>2023-07-13T15:18:37.000+02:00</time>
      </trkpt>
      <trkpt lat="43.33144" lon="-3.81981">
        <ele>105</ele>
        <time>2023-07-13T15:18:38.000+02:00</time>
      </trkpt>
      <trkpt lat="43.33136" lon="-3.81991">
        <ele>104.5</ele>
        <time>2023-07-13T15:18:40.000+02:00</time>
      </trkpt>
      <trkpt lat="43.3313" lon="-3.81995">
        <ele>104</ele>
        <time>2023-07-13T15:18:41.000+02:00</time>
      </trkpt>
      <trkpt lat="43.33123" lon="-3.82001">
        <ele>103.8</ele>
        <time>2023-07-13T15:18:42.000+02:00</time>
      </trkpt>
      <trkpt lat="43.33114" lon="-3.82007">
        <ele>103.3</ele>
        <time>2023-07-13T15:18:44.000+02:00</time>
      </trkpt>
      <trkpt lat="43.33108" lon="-3.82013">
        <ele>102.8</ele>
        <time>2023-07-13T15:18:45.000+02:00</time>
      </trkpt>
      <trkpt lat="43.33093" lon="-3.82032">
        <ele>101.8</ele>
        <time>2023-07-13T15:18:48.000+02:00</time>
      </trkpt>
      <trkpt lat="43.33085" lon="-3.82045">
        <ele>101.3</ele>
        <time>2023-07-13T15:18:50.000+02:00</time>
      </trkpt>
      <trkpt lat="43.33078" lon="-3.8206">
        <ele>100.8</ele>
        <time>2023-07-13T15:18:52.000+02:00</time>
      </trkpt>
      <trkpt lat="43.33072" lon="-3.82059">
        <ele>100.8</ele>
        <time>2023-07-13T15:18:53.000+02:00</time>
      </trkpt>
      <trkpt lat="43.33048" lon="-3.82061">
        <ele>101</ele>
        <time>2023-07-13T15:18:57.000+02:00</time>
      </trkpt>
      <trkpt lat="43.33042" lon="-3.82061">
        <ele>101</ele>
        <time>2023-07-13T15:18:58.000+02:00</time>
      </trkpt>
      <trkpt lat="43.33035" lon="-3.82064">
        <ele>101</ele>
        <time>2023-07-13T15:18:59.000+02:00</time>
      </trkpt>
      <trkpt lat="43.33027" lon="-3.82069">
        <ele>101</ele>
        <time>2023-07-13T15:19:00.000+02:00</time>
      </trkpt>
      <trkpt lat="43.33023" lon="-3.82074">
        <ele>100.8</ele>
        <time>2023-07-13T15:19:01.000+02:00</time>
      </trkpt>
      <trkpt lat="43.3301" lon="-3.82089">
        <ele>100.5</ele>
        <time>2023-07-13T15:19:04.000+02:00</time>
      </trkpt>
      <trkpt lat="43.33004" lon="-3.82094">
        <ele>100.5</ele>
        <time>2023-07-13T15:19:05.000+02:00</time>
      </trkpt>
      <trkpt lat="43.32999" lon="-3.82097">
        <ele>100.5</ele>
        <time>2023-07-13T15:19:06.000+02:00</time>
      </trkpt>
      <trkpt lat="43.32991" lon="-3.82101">
        <ele>100.5</ele>
        <time>2023-07-13T15:19:07.000+02:00</time>
      </trkpt>
      <trkpt lat="43.32965" lon="-3.82114">
        <ele>101.3</ele>
        <time>2023-07-13T15:19:12.000+02:00</time>
      </trkpt>
      <trkpt lat="43.32951" lon="-3.82125">
        <ele>101.8</ele>
        <time>2023-07-13T15:19:14.000+02:00</time>
      </trkpt>
      <trkpt lat="43.32938" lon="-3.82138">
        <ele>102.3</ele>
        <time>2023-07-13T15:19:17.000+02:00</time>
      </trkpt>
      <trkpt lat="43.32933" lon="-3.82145">
        <ele>102.8</ele>
        <time>2023-07-13T15:19:18.000+02:00</time>
      </trkpt>
      <trkpt lat="43.32925" lon="-3.82158">
        <ele>103.3</ele>
        <time>2023-07-13T15:19:20.000+02:00</time>
      </trkpt>
      <trkpt lat="43.32923" lon="-3.82163">
        <ele>103.5</ele>
        <time>2023-07-13T15:19:20.000+02:00</time>
      </trkpt>
      <trkpt lat="43.32903" lon="-3.82209">
        <ele>107</ele>
        <time>2023-07-13T15:19:27.000+02:00</time>
      </trkpt>
      <trkpt lat="43.32897" lon="-3.82222">
        <ele>108.3</ele>
        <time>2023-07-13T15:19:28.000+02:00</time>
      </trkpt>
      <trkpt lat="43.32892" lon="-3.8223">
        <ele>109.3</ele>
        <time>2023-07-13T15:19:30.000+02:00</time>
      </trkpt>
      <trkpt lat="43.32886" lon="-3.82237">
        <ele>110</ele>
        <time>2023-07-13T15:19:31.000+02:00</time>
      </trkpt>
      <trkpt lat="43.3288" lon="-3.82241">
        <ele>111</ele>
        <time>2023-07-13T15:19:32.000+02:00</time>
      </trkpt>
      <trkpt lat="43.32872" lon="-3.82245">
        <ele>111.8</ele>
        <time>2023-07-13T15:19:33.000+02:00</time>
      </trkpt>
      <trkpt lat="43.32858" lon="-3.82248">
        <ele>113.5</ele>
        <time>2023-07-13T15:19:36.000+02:00</time>
      </trkpt>
      <trkpt lat="43.32799" lon="-3.8226">
        <ele>116.5</ele>
        <time>2023-07-13T15:19:45.000+02:00</time>
      </trkpt>
      <trkpt lat="43.32791" lon="-3.82263">
        <ele>116.8</ele>
        <time>2023-07-13T15:19:46.000+02:00</time>
      </trkpt>
      <trkpt lat="43.32784" lon="-3.82267">
        <ele>117</ele>
        <time>2023-07-13T15:19:47.000+02:00</time>
      </trkpt>
      <trkpt lat="43.32776" lon="-3.82274">
        <ele>117.3</ele>
        <time>2023-07-13T15:19:49.000+02:00</time>
      </trkpt>
      <trkpt lat="43.32761" lon="-3.82294">
        <ele>117.5</ele>
        <time>2023-07-13T15:19:52.000+02:00</time>
      </trkpt>
      <trkpt lat="43.32717" lon="-3.82358">
        <ele>117.5</ele>
        <time>2023-07-13T15:20:02.000+02:00</time>
      </trkpt>
      <trkpt lat="43.32708" lon="-3.82369">
        <ele>117.5</ele>
        <time>2023-07-13T15:20:04.000+02:00</time>
      </trkpt>
      <trkpt lat="43.32699" lon="-3.82378">
        <ele>117.5</ele>
        <time>2023-07-13T15:20:06.000+02:00</time>
      </trkpt>
      <trkpt lat="43.3268" lon="-3.82391">
        <ele>117.8</ele>
        <time>2023-07-13T15:20:10.000+02:00</time>
      </trkpt>
      <trkpt lat="43.32674" lon="-3.82395">
        <ele>117.8</ele>
        <time>2023-07-13T15:20:11.000+02:00</time>
      </trkpt>
      <trkpt lat="43.32668" lon="-3.82401">
        <ele>117.8</ele>
        <time>2023-07-13T15:20:12.000+02:00</time>
      </trkpt>
      <trkpt lat="43.32657" lon="-3.82417">
        <ele>117.5</ele>
        <time>2023-07-13T15:20:14.000+02:00</time>
      </trkpt>
      <trkpt lat="43.32622" lon="-3.82475">
        <ele>114.8</ele>
        <time>2023-07-13T15:20:23.000+02:00</time>
      </trkpt>
      <trkpt lat="43.32613" lon="-3.82493">
        <ele>113.5</ele>
        <time>2023-07-13T15:20:25.000+02:00</time>
      </trkpt>
      <trkpt lat="43.32608" lon="-3.82503">
        <ele>113</ele>
        <time>2023-07-13T15:20:27.000+02:00</time>
      </trkpt>
      <trkpt lat="43.32605" lon="-3.82514">
        <ele>112.5</ele>
        <time>2023-07-13T15:20:28.000+02:00</time>
      </trkpt>
      <trkpt lat="43.32603" lon="-3.82524">
        <ele>112</ele>
        <time>2023-07-13T15:20:29.000+02:00</time>
      </trkpt>
      <trkpt lat="43.32596" lon="-3.82582">
        <ele>109.8</ele>
        <time>2023-07-13T15:20:36.000+02:00</time>
      </trkpt>
      <trkpt lat="43.32594" lon="-3.82594">
        <ele>109</ele>
        <time>2023-07-13T15:20:38.000+02:00</time>
      </trkpt>
      <trkpt lat="43.3259" lon="-3.82605">
        <ele>108.5</ele>
        <time>2023-07-13T15:20:39.000+02:00</time>
      </trkpt>
      <trkpt lat="43.32582" lon="-3.82622">
        <ele>107.5</ele>
        <time>2023-07-13T15:20:41.000+02:00</time>
      </trkpt>
      <trkpt lat="43.32533" lon="-3.82712">
        <ele>103.8</ele>
        <time>2023-07-13T15:20:54.000+02:00</time>
      </trkpt>
      <trkpt lat="43.32521" lon="-3.82737">
        <ele>103.5</ele>
        <time>2023-07-13T15:20:58.000+02:00</time>
      </trkpt>
      <trkpt lat="43.32514" lon="-3.82752">
        <ele>103.3</ele>
        <time>2023-07-13T15:21:00.000+02:00</time>
      </trkpt>
      <trkpt lat="43.32496" lon="-3.82796">
        <ele>103.8</ele>
        <time>2023-07-13T15:21:06.000+02:00</time>
      </trkpt>
      <trkpt lat="43.32485" lon="-3.82822">
        <ele>105</ele>
        <time>2023-07-13T15:21:09.000+02:00</time>
      </trkpt>
      <trkpt lat="43.3247" lon="-3.82851">
        <ele>106</ele>
        <time>2023-07-13T15:21:13.000+02:00</time>
      </trkpt>
      <trkpt lat="43.32422" lon="-3.82936">
        <ele>107.8</ele>
        <time>2023-07-13T15:21:26.000+02:00</time>
      </trkpt>
      <trkpt lat="43.32397" lon="-3.82974">
        <ele>107.8</ele>
        <time>2023-07-13T15:21:32.000+02:00</time>
      </trkpt>
      <trkpt lat="43.32374" lon="-3.83005">
        <ele>107.3</ele>
        <time>2023-07-13T15:21:37.000+02:00</time>
      </trkpt>
      <trkpt lat="43.32362" lon="-3.83019">
        <ele>107</ele>
        <time>2023-07-13T15:21:39.000+02:00</time>
      </trkpt>
      <trkpt lat="43.32338" lon="-3.83043">
        <ele>107.3</ele>
        <time>2023-07-13T15:21:44.000+02:00</time>
      </trkpt>
      <trkpt lat="43.3232" lon="-3.83062">
        <ele>106.8</ele>
        <time>2023-07-13T15:21:47.000+02:00</time>
      </trkpt>
      <trkpt lat="43.32308" lon="-3.83076">
        <ele>106.5</ele>
        <time>2023-07-13T15:21:50.000+02:00</time>
      </trkpt>
      <trkpt lat="43.32298" lon="-3.83093">
        <ele>106</ele>
        <time>2023-07-13T15:21:52.000+02:00</time>
      </trkpt>
      <trkpt lat="43.32289" lon="-3.83111">
        <ele>105.5</ele>
        <time>2023-07-13T15:21:55.000+02:00</time>
      </trkpt>
      <trkpt lat="43.32281" lon="-3.83139">
        <ele>104.8</ele>
        <time>2023-07-13T15:21:58.000+02:00</time>
      </trkpt>
      <trkpt lat="43.32279" lon="-3.83152">
        <ele>104.3</ele>
        <time>2023-07-13T15:22:00.000+02:00</time>
      </trkpt>
      <trkpt lat="43.32265" lon="-3.83224">
        <ele>101.3</ele>
        <time>2023-07-13T15:22:09.000+02:00</time>
      </trkpt>
      <trkpt lat="43.32259" lon="-3.83255">
        <ele>99.8</ele>
        <time>2023-07-13T15:22:12.000+02:00</time>
      </trkpt>
      <trkpt lat="43.32247" lon="-3.83297">
        <ele>98.8</ele>
        <time>2023-07-13T15:22:17.000+02:00</time>
      </trkpt>
      <trkpt lat="43.32243" lon="-3.8331">
        <ele>98.5</ele>
        <time>2023-07-13T15:22:19.000+02:00</time>
      </trkpt>
      <trkpt lat="43.32236" lon="-3.83331">
        <ele>98.3</ele>
        <time>2023-07-13T15:22:22.000+02:00</time>
      </trkpt>
      <trkpt lat="43.32231" lon="-3.83343">
        <ele>98.3</ele>
        <time>2023-07-13T15:22:23.000+02:00</time>
      </trkpt>
      <trkpt lat="43.32228" lon="-3.83349">
        <ele>98.3</ele>
        <time>2023-07-13T15:22:24.000+02:00</time>
      </trkpt>
      <trkpt lat="43.32221" lon="-3.83356">
        <ele>98.3</ele>
        <time>2023-07-13T15:22:26.000+02:00</time>
      </trkpt>
      <trkpt lat="43.32212" lon="-3.83363">
        <ele>98.3</ele>
        <time>2023-07-13T15:22:27.000+02:00</time>
      </trkpt>
      <trkpt lat="43.32106" lon="-3.8344">
        <ele>98.8</ele>
        <time>2023-07-13T15:22:46.000+02:00</time>
      </trkpt>
      <trkpt lat="43.32066" lon="-3.83475">
        <ele>98.3</ele>
        <time>2023-07-13T15:22:54.000+02:00</time>
      </trkpt>
      <trkpt lat="43.31998" lon="-3.83532">
        <ele>96.8</ele>
        <time>2023-07-13T15:23:06.000+02:00</time>
      </trkpt>
      <trkpt lat="43.31988" lon="-3.83543">
        <ele>96.3</ele>
        <time>2023-07-13T15:23:08.000+02:00</time>
      </trkpt>
      <trkpt lat="43.31968" lon="-3.83572">
        <ele>95.3</ele>
        <time>2023-07-13T15:23:13.000+02:00</time>
      </trkpt>
      <trkpt lat="43.31929" lon="-3.83637">
        <ele>93.8</ele>
        <time>2023-07-13T15:23:23.000+02:00</time>
      </trkpt>
      <trkpt lat="43.31923" lon="-3.83652">
        <ele>93.3</ele>
        <time>2023-07-13T15:23:25.000+02:00</time>
      </trkpt>
      <trkpt lat="43.31903" lon="-3.83702">
        <ele>94.3</ele>
        <time>2023-07-13T15:23:31.000+02:00</time>
      </trkpt>
      <trkpt lat="43.31892" lon="-3.83735">
        <ele>95</ele>
        <time>2023-07-13T15:23:35.000+02:00</time>
      </trkpt>
      <trkpt lat="43.31889" lon="-3.83745">
        <ele>95</ele>
        <time>2023-07-13T15:23:37.000+02:00</time>
      </trkpt>
      <trkpt lat="43.31887" lon="-3.83754">
        <ele>95.3</ele>
        <time>2023-07-13T15:23:38.000+02:00</time>
      </trkpt>
      <trkpt lat="43.31887" lon="-3.83761">
        <ele>95</ele>
        <time>2023-07-13T15:23:39.000+02:00</time>
      </trkpt>
      <trkpt lat="43.31887" lon="-3.8377">
        <ele>95</ele>
        <time>2023-07-13T15:23:40.000+02:00</time>
      </trkpt>
      <trkpt lat="43.31888" lon="-3.83798">
        <ele>95</ele>
        <time>2023-07-13T15:23:43.000+02:00</time>
      </trkpt>
      <trkpt lat="43.31896" lon="-3.83866">
        <ele>94.8</ele>
        <time>2023-07-13T15:23:51.000+02:00</time>
      </trkpt>
      <trkpt lat="43.31895" lon="-3.83876">
        <ele>94.5</ele>
        <time>2023-07-13T15:23:52.000+02:00</time>
      </trkpt>
      <trkpt lat="43.31892" lon="-3.83887">
        <ele>94.3</ele>
        <time>2023-07-13T15:23:53.000+02:00</time>
      </trkpt>
      <trkpt lat="43.31839" lon="-3.84056">
        <ele>91.8</ele>
        <time>2023-07-13T15:24:14.000+02:00</time>
      </trkpt>
      <trkpt lat="43.31828" lon="-3.8409">
        <ele>91.8</ele>
        <time>2023-07-13T15:24:19.000+02:00</time>
      </trkpt>
      <trkpt lat="43.31818" lon="-3.84113">
        <ele>91.5</ele>
        <time>2023-07-13T15:24:22.000+02:00</time>
      </trkpt>
      <trkpt lat="43.31788" lon="-3.84185">
        <ele>91.8</ele>
        <time>2023-07-13T15:24:31.000+02:00</time>
      </trkpt>
      <trkpt lat="43.31786" lon="-3.84191">
        <ele>92</ele>
        <time>2023-07-13T15:24:32.000+02:00</time>
      </trkpt>
      <trkpt lat="43.31782" lon="-3.84207">
        <ele>92.5</ele>
        <time>2023-07-13T15:24:34.000+02:00</time>
      </trkpt>
      <trkpt lat="43.3178" lon="-3.84221">
        <ele>92.8</ele>
        <time>2023-07-13T15:24:36.000+02:00</time>
      </trkpt>
      <trkpt lat="43.3178" lon="-3.84237">
        <ele>93.3</ele>
        <time>2023-07-13T15:24:38.000+02:00</time>
      </trkpt>
      <trkpt lat="43.3178" lon="-3.84253">
        <ele>93.5</ele>
        <time>2023-07-13T15:24:39.000+02:00</time>
      </trkpt>
      <trkpt lat="43.31782" lon="-3.84271">
        <ele>94</ele>
        <time>2023-07-13T15:24:42.000+02:00</time>
      </trkpt>
      <trkpt lat="43.3179" lon="-3.84315">
        <ele>95</ele>
        <time>2023-07-13T15:24:47.000+02:00</time>
      </trkpt>
      <trkpt lat="43.31797" lon="-3.84352">
        <ele>95.5</ele>
        <time>2023-07-13T15:24:51.000+02:00</time>
      </trkpt>
      <trkpt lat="43.31803" lon="-3.84387">
        <ele>96</ele>
        <time>2023-07-13T15:24:55.000+02:00</time>
      </trkpt>
      <trkpt lat="43.31806" lon="-3.84414">
        <ele>96.5</ele>
        <time>2023-07-13T15:24:58.000+02:00</time>
      </trkpt>
      <trkpt lat="43.31807" lon="-3.84441">
        <ele>97.3</ele>
        <time>2023-07-13T15:25:02.000+02:00</time>
      </trkpt>
      <trkpt lat="43.31807" lon="-3.84454">
        <ele>97.5</ele>
        <time>2023-07-13T15:25:03.000+02:00</time>
      </trkpt>
      <trkpt lat="43.31806" lon="-3.84465">
        <ele>98</ele>
        <time>2023-07-13T15:25:04.000+02:00</time>
      </trkpt>
      <trkpt lat="43.31802" lon="-3.84473">
        <ele>98</ele>
        <time>2023-07-13T15:25:06.000+02:00</time>
      </trkpt>
      <trkpt lat="43.31799" lon="-3.8448">
        <ele>98</ele>
        <time>2023-07-13T15:25:06.000+02:00</time>
      </trkpt>
      <trkpt lat="43.31784" lon="-3.84512">
        <ele>98.5</ele>
        <time>2023-07-13T15:25:11.000+02:00</time>
      </trkpt>
      <trkpt lat="43.3176" lon="-3.84563">
        <ele>99</ele>
        <time>2023-07-13T15:25:18.000+02:00</time>
      </trkpt>
      <trkpt lat="43.31753" lon="-3.84576">
        <ele>99</ele>
        <time>2023-07-13T15:25:20.000+02:00</time>
      </trkpt>
      <trkpt lat="43.31745" lon="-3.84589">
        <ele>99.3</ele>
        <time>2023-07-13T15:25:22.000+02:00</time>
      </trkpt>
      <trkpt lat="43.31731" lon="-3.84606">
        <ele>100</ele>
        <time>2023-07-13T15:25:25.000+02:00</time>
      </trkpt>
      <trkpt lat="43.31692" lon="-3.84652">
        <ele>101.8</ele>
        <time>2023-07-13T15:25:33.000+02:00</time>
      </trkpt>
      <trkpt lat="43.31681" lon="-3.84661">
        <ele>101.8</ele>
        <time>2023-07-13T15:25:35.000+02:00</time>
      </trkpt>
      <trkpt lat="43.31665" lon="-3.84674">
        <ele>102</ele>
        <time>2023-07-13T15:25:38.000+02:00</time>
      </trkpt>
      <trkpt lat="43.31615" lon="-3.84705">
        <ele>100.5</ele>
        <time>2023-07-13T15:25:46.000+02:00</time>
      </trkpt>
      <trkpt lat="43.31601" lon="-3.84714">
        <ele>99.5</ele>
        <time>2023-07-13T15:25:49.000+02:00</time>
      </trkpt>
      <trkpt lat="43.31598" lon="-3.84717">
        <ele>99.3</ele>
        <time>2023-07-13T15:25:49.000+02:00</time>
      </trkpt>
      <trkpt lat="43.31592" lon="-3.84725">
        <ele>99.3</ele>
        <time>2023-07-13T15:25:51.000+02:00</time>
      </trkpt>
      <trkpt lat="43.31577" lon="-3.84749">
        <ele>99.3</ele>
        <time>2023-07-13T15:25:54.000+02:00</time>
      </trkpt>
      <trkpt lat="43.3154" lon="-3.84815">
        <ele>98.3</ele>
        <time>2023-07-13T15:26:04.000+02:00</time>
      </trkpt>
      <trkpt lat="43.31535" lon="-3.84826">
        <ele>97.8</ele>
        <time>2023-07-13T15:26:05.000+02:00</time>
      </trkpt>
      <trkpt lat="43.31531" lon="-3.84839">
        <ele>97.3</ele>
        <time>2023-07-13T15:26:07.000+02:00</time>
      </trkpt>
      <trkpt lat="43.31499" lon="-3.84963">
        <ele>91.5</ele>
        <time>2023-07-13T15:26:22.000+02:00</time>
      </trkpt>
      <trkpt lat="43.31474" lon="-3.85058">
        <ele>90.5</ele>
        <time>2023-07-13T15:26:34.000+02:00</time>
      </trkpt>
      <trkpt lat="43.3147" lon="-3.85076">
        <ele>90.3</ele>
        <time>2023-07-13T15:26:36.000+02:00</time>
      </trkpt>
      <trkpt lat="43.31459" lon="-3.85124">
        <ele>90.3</ele>
        <time>2023-07-13T15:26:42.000+02:00</time>
      </trkpt>
      <trkpt lat="43.31448" lon="-3.85109">
        <ele>90.5</ele>
        <time>2023-07-13T15:26:44.000+02:00</time>
      </trkpt>
      <trkpt lat="43.31443" lon="-3.85105">
        <ele>90.5</ele>
        <time>2023-07-13T15:26:45.000+02:00</time>
      </trkpt>
      <trkpt lat="43.31439" lon="-3.85103">
        <ele>90.5</ele>
        <time>2023-07-13T15:26:46.000+02:00</time>
      </trkpt>
      <trkpt lat="43.31431" lon="-3.85102">
        <ele>90.8</ele>
        <time>2023-07-13T15:26:47.000+02:00</time>
      </trkpt>
      <trkpt lat="43.31417" lon="-3.85105">
        <ele>90.8</ele>
        <time>2023-07-13T15:26:49.000+02:00</time>
      </trkpt>
      <trkpt lat="43.3141" lon="-3.85106">
        <ele>91</ele>
        <time>2023-07-13T15:26:51.000+02:00</time>
      </trkpt>
      <trkpt lat="43.31405" lon="-3.85105">
        <ele>91</ele>
        <time>2023-07-13T15:26:51.000+02:00</time>
      </trkpt>
      <trkpt lat="43.31388" lon="-3.85095">
        <ele>91</ele>
        <time>2023-07-13T15:26:54.000+02:00</time>
      </trkpt>
      <trkpt lat="43.31382" lon="-3.85093">
        <ele>91</ele>
        <time>2023-07-13T15:26:55.000+02:00</time>
      </trkpt>
      <trkpt lat="43.31377" lon="-3.85093">
        <ele>91</ele>
        <time>2023-07-13T15:26:56.000+02:00</time>
      </trkpt>
      <trkpt lat="43.31375" lon="-3.85094">
        <ele>91</ele>
        <time>2023-07-13T15:26:56.000+02:00</time>
      </trkpt>
      <trkpt lat="43.31371" lon="-3.85097">
        <ele>91</ele>
        <time>2023-07-13T15:26:57.000+02:00</time>
      </trkpt>
      <trkpt lat="43.31368" lon="-3.85101">
        <ele>91</ele>
        <time>2023-07-13T15:26:58.000+02:00</time>
      </trkpt>
      <trkpt lat="43.31359" lon="-3.85122">
        <ele>91.3</ele>
        <time>2023-07-13T15:27:01.000+02:00</time>
      </trkpt>
      <trkpt lat="43.31345" lon="-3.85145">
        <ele>91.5</ele>
        <time>2023-07-13T15:27:04.000+02:00</time>
      </trkpt>
      <trkpt lat="43.31338" lon="-3.85159">
        <ele>91.8</ele>
        <time>2023-07-13T15:27:06.000+02:00</time>
      </trkpt>
      <trkpt lat="43.31331" lon="-3.85177">
        <ele>91.8</ele>
        <time>2023-07-13T15:27:08.000+02:00</time>
      </trkpt>
      <trkpt lat="43.31315" lon="-3.85204">
        <ele>91.3</ele>
        <time>2023-07-13T15:27:12.000+02:00</time>
      </trkpt>
      <trkpt lat="43.31312" lon="-3.8521">
        <ele>91</ele>
        <time>2023-07-13T15:27:13.000+02:00</time>
      </trkpt>
      <trkpt lat="43.3131" lon="-3.85218">
        <ele>91</ele>
        <time>2023-07-13T15:27:14.000+02:00</time>
      </trkpt>
      <trkpt lat="43.31307" lon="-3.85228">
        <ele>90.8</ele>
        <time>2023-07-13T15:27:15.000+02:00</time>
      </trkpt>
      <trkpt lat="43.31303" lon="-3.85234">
        <ele>90.8</ele>
        <time>2023-07-13T15:27:16.000+02:00</time>
      </trkpt>
      <trkpt lat="43.31299" lon="-3.85238">
        <ele>91</ele>
        <time>2023-07-13T15:27:17.000+02:00</time>
      </trkpt>
      <trkpt lat="43.31283" lon="-3.85248">
        <ele>91</ele>
        <time>2023-07-13T15:27:20.000+02:00</time>
      </trkpt>
      <trkpt lat="43.31264" lon="-3.85264">
        <ele>91.5</ele>
        <time>2023-07-13T15:27:23.000+02:00</time>
      </trkpt>
      <trkpt lat="43.31248" lon="-3.8528">
        <ele>92</ele>
        <time>2023-07-13T15:27:27.000+02:00</time>
      </trkpt>
      <trkpt lat="43.31242" lon="-3.85295">
        <ele>92</ele>
        <time>2023-07-13T15:27:29.000+02:00</time>
      </trkpt>
      <trkpt lat="43.31241" lon="-3.85302">
        <ele>92</ele>
        <time>2023-07-13T15:27:29.000+02:00</time>
      </trkpt>
      <trkpt lat="43.31206" lon="-3.85328">
        <ele>92</ele>
        <time>2023-07-13T15:27:36.000+02:00</time>
      </trkpt>
      <trkpt lat="43.31171" lon="-3.85355">
        <ele>92.3</ele>
        <time>2023-07-13T15:27:42.000+02:00</time>
      </trkpt>
      <trkpt lat="43.31151" lon="-3.8537">
        <ele>92.5</ele>
        <time>2023-07-13T15:27:46.000+02:00</time>
      </trkpt>
      <trkpt lat="43.31143" lon="-3.85376">
        <ele>92.8</ele>
        <time>2023-07-13T15:27:47.000+02:00</time>
      </trkpt>
      <trkpt lat="43.3114" lon="-3.85379">
        <ele>93</ele>
        <time>2023-07-13T15:27:48.000+02:00</time>
      </trkpt>
      <trkpt lat="43.31105" lon="-3.85375">
        <ele>93.5</ele>
        <time>2023-07-13T15:27:53.000+02:00</time>
      </trkpt>
      <trkpt lat="43.31091" lon="-3.85373">
        <ele>93.8</ele>
        <time>2023-07-13T15:27:55.000+02:00</time>
      </trkpt>
      <trkpt lat="43.31065" lon="-3.8537">
        <ele>94</ele>
        <time>2023-07-13T15:28:00.000+02:00</time>
      </trkpt>
      <trkpt lat="43.31058" lon="-3.85369">
        <ele>94.3</ele>
        <time>2023-07-13T15:28:01.000+02:00</time>
      </trkpt>
      <trkpt lat="43.31044" lon="-3.85368">
        <ele>94.3</ele>
        <time>2023-07-13T15:28:03.000+02:00</time>
      </trkpt>
      <trkpt lat="43.31031" lon="-3.85366">
        <ele>94.5</ele>
        <time>2023-07-13T15:28:05.000+02:00</time>
      </trkpt>
      <trkpt lat="43.31009" lon="-3.85364">
        <ele>94.8</ele>
        <time>2023-07-13T15:28:08.000+02:00</time>
      </trkpt>
      <trkpt lat="43.3099" lon="-3.85361">
        <ele>95</ele>
        <time>2023-07-13T15:28:12.000+02:00</time>
      </trkpt>
      <trkpt lat="43.30987" lon="-3.85361">
        <ele>95</ele>
        <time>2023-07-13T15:28:12.000+02:00</time>
      </trkpt>
      <trkpt lat="43.30969" lon="-3.85361">
        <ele>95</ele>
        <time>2023-07-13T15:28:15.000+02:00</time>
      </trkpt>
      <trkpt lat="43.30967" lon="-3.85366">
        <ele>95</ele>
        <time>2023-07-13T15:28:16.000+02:00</time>
      </trkpt>
      <trkpt lat="43.30963" lon="-3.85383">
        <ele>95</ele>
        <time>2023-07-13T15:28:18.000+02:00</time>
      </trkpt>
    </trkseg>
  </trk>
</gpx>